sensor_id;sensor_type;location;lat;lon;timestamp;P1;durP1;ratioP1;P2;durP2;ratioP2
7817;SDS011;3954;52.624;9.212;2023-04-01T00:00:45;5.37;;;3.90;;
7817;SDS011;3954;52.624;9.212;2023-04-01T00:03:11;4.93;;;3.87;;
7817;SDS011;3954;52.624;9.212;2023-04-01T00:05:37;5.97;;;3.60;;
7817;SDS011;3954;52.624;9.212;2023-04-01T00:08:03;6.60;;;4.20;;
7817;SDS011;3954;52.624;9.212;2023-04-01T00:10:29;4.23;;;3.83;;
7817;SDS011;3954;52.624;9.212;2023-04-01T00:12:55;6.97;;;4.07;;
7817;SDS011;3954;52.624;9.212;2023-04-01T00:15:21;4.50;;;4.00;;
7817;SDS011;3954;52.624;9.212;2023-04-01T00:17:48;8.03;;;3.70;;
7817;SDS011;3954;52.624;9.212;2023-04-01T00:20:14;5.37;;;3.13;;
7817;SDS011;3954;52.624;9.212;2023-04-01T00:22:40;4.77;;;3.40;;
7817;SDS011;3954;52.624;9.212;2023-04-01T00:25:06;5.63;;;4.23;;
7817;SDS011;3954;52.624;9.212;2023-04-01T00:27:32;4.03;;;3.13;;
7817;SDS011;3954;52.624;9.212;2023-04-01T00:29:58;7.93;;;3.43;;
7817;SDS011;3954;52.624;9.212;2023-04-01T00:32:25;7.00;;;3.47;;
7817;SDS011;3954;52.624;9.212;2023-04-01T00:34:52;5.10;;;3.43;;
7817;SDS011;3954;52.624;9.212;2023-04-01T00:37:18;7.93;;;3.63;;
7817;SDS011;3954;52.624;9.212;2023-04-01T00:39:46;4.23;;;3.33;;
7817;SDS011;3954;52.624;9.212;2023-04-01T00:42:12;5.07;;;3.40;;
7817;SDS011;3954;52.624;9.212;2023-04-01T00:44:39;9.13;;;3.30;;
7817;SDS011;3954;52.624;9.212;2023-04-01T00:47:05;4.27;;;3.10;;
7817;SDS011;3954;52.624;9.212;2023-04-01T00:49:32;6.73;;;3.10;;
7817;SDS011;3954;52.624;9.212;2023-04-01T00:52:00;5.20;;;2.73;;
7817;SDS011;3954;52.624;9.212;2023-04-01T00:54:27;5.37;;;3.03;;
7817;SDS011;3954;52.624;9.212;2023-04-01T00:56:55;5.60;;;3.10;;
7817;SDS011;3954;52.624;9.212;2023-04-01T00:59:23;4.60;;;2.60;;
7817;SDS011;3954;52.624;9.212;2023-04-01T01:01:50;3.23;;;2.93;;
7817;SDS011;3954;52.624;9.212;2023-04-01T01:04:23;3.77;;;2.70;;
7817;SDS011;3954;52.624;9.212;2023-04-01T01:06:50;3.00;;;2.70;;
7817;SDS011;3954;52.624;9.212;2023-04-01T01:09:23;5.83;;;2.87;;
7817;SDS011;3954;52.624;9.212;2023-04-01T01:11:51;4.00;;;2.90;;
7817;SDS011;3954;52.624;9.212;2023-04-01T01:14:24;6.33;;;3.20;;
7817;SDS011;3954;52.624;9.212;2023-04-01T01:16:52;4.47;;;2.63;;
7817;SDS011;3954;52.624;9.212;2023-04-01T01:19:27;4.07;;;2.90;;
7817;SDS011;3954;52.624;9.212;2023-04-01T01:22:07;5.33;;;2.90;;
7817;SDS011;3954;52.624;9.212;2023-04-01T01:24:43;7.07;;;3.83;;
7817;SDS011;3954;52.624;9.212;2023-04-01T01:27:16;4.80;;;3.37;;
7817;SDS011;3954;52.624;9.212;2023-04-01T01:29:46;4.83;;;2.97;;
7817;SDS011;3954;52.624;9.212;2023-04-01T01:32:17;3.77;;;3.30;;
7817;SDS011;3954;52.624;9.212;2023-04-01T01:37:51;4.07;;;3.13;;
7817;SDS011;3954;52.624;9.212;2023-04-01T01:40:18;3.60;;;3.30;;
7817;SDS011;3954;52.624;9.212;2023-04-01T01:42:47;4.60;;;3.40;;
7817;SDS011;3954;52.624;9.212;2023-04-01T01:45:14;5.63;;;3.30;;
7817;SDS011;3954;52.624;9.212;2023-04-01T01:47:43;7.03;;;3.67;;
7817;SDS011;3954;52.624;9.212;2023-04-01T01:50:09;5.23;;;3.50;;
7817;SDS011;3954;52.624;9.212;2023-04-01T01:52:36;5.00;;;3.30;;
7817;SDS011;3954;52.624;9.212;2023-04-01T01:57:44;3.40;;;3.10;;
7817;SDS011;3954;52.624;9.212;2023-04-01T02:00:11;6.90;;;3.40;;
7817;SDS011;3954;52.624;9.212;2023-04-01T02:02:40;3.23;;;2.93;;
7817;SDS011;3954;52.624;9.212;2023-04-01T02:05:07;3.80;;;3.00;;
7817;SDS011;3954;52.624;9.212;2023-04-01T02:07:34;4.10;;;3.00;;
7817;SDS011;3954;52.624;9.212;2023-04-01T02:10:01;3.43;;;3.07;;
7817;SDS011;3954;52.624;9.212;2023-04-01T02:12:27;3.70;;;3.00;;
7817;SDS011;3954;52.624;9.212;2023-04-01T02:14:56;4.30;;;2.87;;
7817;SDS011;3954;52.624;9.212;2023-04-01T02:17:24;3.00;;;2.37;;
7817;SDS011;3954;52.624;9.212;2023-04-01T02:19:51;3.03;;;2.73;;
7817;SDS011;3954;52.624;9.212;2023-04-01T02:22:19;3.00;;;2.30;;
7817;SDS011;3954;52.624;9.212;2023-04-01T02:24:46;4.80;;;2.63;;
7817;SDS011;3954;52.624;9.212;2023-04-01T02:27:13;4.37;;;2.80;;
7817;SDS011;3954;52.624;9.212;2023-04-01T02:29:39;3.27;;;2.60;;
7817;SDS011;3954;52.624;9.212;2023-04-01T02:32:07;3.90;;;2.77;;
7817;SDS011;3954;52.624;9.212;2023-04-01T02:34:34;4.70;;;2.80;;
7817;SDS011;3954;52.624;9.212;2023-04-01T02:37:00;3.10;;;2.63;;
7817;SDS011;3954;52.624;9.212;2023-04-01T02:39:27;4.07;;;3.00;;
7817;SDS011;3954;52.624;9.212;2023-04-01T02:41:53;4.70;;;2.73;;
7817;SDS011;3954;52.624;9.212;2023-04-01T02:44:19;4.00;;;2.60;;
7817;SDS011;3954;52.624;9.212;2023-04-01T02:46:45;3.03;;;2.40;;
7817;SDS011;3954;52.624;9.212;2023-04-01T02:49:12;2.93;;;2.50;;
7817;SDS011;3954;52.624;9.212;2023-04-01T02:51:38;5.20;;;2.60;;
7817;SDS011;3954;52.624;9.212;2023-04-01T02:54:04;2.43;;;2.20;;
7817;SDS011;3954;52.624;9.212;2023-04-01T02:56:30;3.33;;;1.97;;
7817;SDS011;3954;52.624;9.212;2023-04-01T02:58:56;4.83;;;2.20;;
7817;SDS011;3954;52.624;9.212;2023-04-01T03:01:22;2.90;;;2.30;;
7817;SDS011;3954;52.624;9.212;2023-04-01T03:03:48;2.87;;;2.00;;
7817;SDS011;3954;52.624;9.212;2023-04-01T03:06:16;4.23;;;2.30;;
7817;SDS011;3954;52.624;9.212;2023-04-01T03:08:42;4.17;;;2.43;;
7817;SDS011;3954;52.624;9.212;2023-04-01T03:11:09;3.77;;;2.10;;
7817;SDS011;3954;52.624;9.212;2023-04-01T03:13:35;3.27;;;2.33;;
7817;SDS011;3954;52.624;9.212;2023-04-01T03:16:01;4.23;;;2.50;;
7817;SDS011;3954;52.624;9.212;2023-04-01T03:18:27;2.27;;;1.90;;
7817;SDS011;3954;52.624;9.212;2023-04-01T03:20:53;3.17;;;2.20;;
7817;SDS011;3954;52.624;9.212;2023-04-01T03:23:21;2.70;;;2.00;;
7817;SDS011;3954;52.624;9.212;2023-04-01T03:25:49;2.33;;;2.10;;
7817;SDS011;3954;52.624;9.212;2023-04-01T03:28:15;2.33;;;2.00;;
7817;SDS011;3954;52.624;9.212;2023-04-01T03:30:41;3.03;;;1.90;;
7817;SDS011;3954;52.624;9.212;2023-04-01T03:33:07;6.00;;;2.20;;
7817;SDS011;3954;52.624;9.212;2023-04-01T03:35:33;3.67;;;2.00;;
7817;SDS011;3954;52.624;9.212;2023-04-01T03:38:01;1.90;;;1.80;;
7817;SDS011;3954;52.624;9.212;2023-04-01T03:40:28;3.20;;;2.10;;
7817;SDS011;3954;52.624;9.212;2023-04-01T03:42:54;3.60;;;1.70;;
7817;SDS011;3954;52.624;9.212;2023-04-01T03:45:21;2.07;;;1.87;;
7817;SDS011;3954;52.624;9.212;2023-04-01T03:47:47;2.20;;;1.87;;
7817;SDS011;3954;52.624;9.212;2023-04-01T03:50:13;2.33;;;1.77;;
7817;SDS011;3954;52.624;9.212;2023-04-01T03:52:39;3.00;;;1.90;;
7817;SDS011;3954;52.624;9.212;2023-04-01T03:55:05;2.40;;;1.87;;
7817;SDS011;3954;52.624;9.212;2023-04-01T03:57:32;2.80;;;1.97;;
7817;SDS011;3954;52.624;9.212;2023-04-01T03:59:58;2.33;;;1.50;;
7817;SDS011;3954;52.624;9.212;2023-04-01T04:02:25;1.90;;;1.70;;
7817;SDS011;3954;52.624;9.212;2023-04-01T04:04:50;1.57;;;1.47;;
7817;SDS011;3954;52.624;9.212;2023-04-01T04:07:16;2.97;;;1.80;;
7817;SDS011;3954;52.624;9.212;2023-04-01T04:09:42;2.00;;;1.70;;
7817;SDS011;3954;52.624;9.212;2023-04-01T04:12:09;3.77;;;1.70;;
7817;SDS011;3954;52.624;9.212;2023-04-01T04:14:36;1.80;;;1.53;;
7817;SDS011;3954;52.624;9.212;2023-04-01T04:17:02;2.33;;;1.60;;
7817;SDS011;3954;52.624;9.212;2023-04-01T04:19:31;2.13;;;1.40;;
7817;SDS011;3954;52.624;9.212;2023-04-01T04:21:58;3.00;;;1.50;;
7817;SDS011;3954;52.624;9.212;2023-04-01T04:24:26;2.77;;;1.33;;
7817;SDS011;3954;52.624;9.212;2023-04-01T04:26:52;2.43;;;1.60;;
7817;SDS011;3954;52.624;9.212;2023-04-01T04:29:18;3.20;;;1.50;;
7817;SDS011;3954;52.624;9.212;2023-04-01T04:31:45;1.93;;;1.33;;
7817;SDS011;3954;52.624;9.212;2023-04-01T04:34:11;3.17;;;1.60;;
7817;SDS011;3954;52.624;9.212;2023-04-01T04:36:37;2.50;;;1.30;;
7817;SDS011;3954;52.624;9.212;2023-04-01T04:39:03;2.30;;;1.50;;
7817;SDS011;3954;52.624;9.212;2023-04-01T04:41:29;3.60;;;1.73;;
7817;SDS011;3954;52.624;9.212;2023-04-01T04:43:56;1.77;;;1.40;;
7817;SDS011;3954;52.624;9.212;2023-04-01T04:46:23;2.53;;;1.47;;
7817;SDS011;3954;52.624;9.212;2023-04-01T04:48:51;3.20;;;2.03;;
7817;SDS011;3954;52.624;9.212;2023-04-01T04:51:18;3.17;;;1.50;;
7817;SDS011;3954;52.624;9.212;2023-04-01T04:53:44;1.60;;;1.50;;
7817;SDS011;3954;52.624;9.212;2023-04-01T04:56:10;2.20;;;1.53;;
7817;SDS011;3954;52.624;9.212;2023-04-01T04:58:37;1.43;;;1.33;;
7817;SDS011;3954;52.624;9.212;2023-04-01T05:01:07;3.00;;;1.57;;
7817;SDS011;3954;52.624;9.212;2023-04-01T05:03:33;2.50;;;1.50;;
7817;SDS011;3954;52.624;9.212;2023-04-01T05:06:00;2.40;;;1.40;;
7817;SDS011;3954;52.624;9.212;2023-04-01T05:08:26;3.40;;;1.50;;
7817;SDS011;3954;52.624;9.212;2023-04-01T05:10:52;1.60;;;1.50;;
7817;SDS011;3954;52.624;9.212;2023-04-01T05:13:18;2.70;;;1.87;;
7817;SDS011;3954;52.624;9.212;2023-04-01T05:15:44;1.57;;;1.47;;
7817;SDS011;3954;52.624;9.212;2023-04-01T05:18:10;3.90;;;1.70;;
7817;SDS011;3954;52.624;9.212;2023-04-01T05:20:36;4.27;;;1.60;;
7817;SDS011;3954;52.624;9.212;2023-04-01T05:23:04;3.77;;;1.70;;
7817;SDS011;3954;52.624;9.212;2023-04-01T05:25:30;2.43;;;1.67;;
7817;SDS011;3954;52.624;9.212;2023-04-01T05:27:56;2.93;;;1.67;;
7817;SDS011;3954;52.624;9.212;2023-04-01T05:30:22;1.53;;;1.43;;
7817;SDS011;3954;52.624;9.212;2023-04-01T05:32:48;2.30;;;1.50;;
7817;SDS011;3954;52.624;9.212;2023-04-01T05:35:14;1.80;;;1.40;;
7817;SDS011;3954;52.624;9.212;2023-04-01T05:37:40;2.63;;;1.50;;
7817;SDS011;3954;52.624;9.212;2023-04-01T05:40:08;2.40;;;1.40;;
7817;SDS011;3954;52.624;9.212;2023-04-01T05:42:34;2.50;;;1.50;;
7817;SDS011;3954;52.624;9.212;2023-04-01T05:45:00;3.13;;;1.50;;
7817;SDS011;3954;52.624;9.212;2023-04-01T05:47:26;2.40;;;1.77;;
7817;SDS011;3954;52.624;9.212;2023-04-01T05:49:52;4.13;;;1.60;;
7817;SDS011;3954;52.624;9.212;2023-04-01T05:52:20;2.67;;;1.40;;
7817;SDS011;3954;52.624;9.212;2023-04-01T05:54:46;3.63;;;1.73;;
7817;SDS011;3954;52.624;9.212;2023-04-01T05:57:13;2.30;;;1.57;;
7817;SDS011;3954;52.624;9.212;2023-04-01T05:59:39;2.57;;;1.50;;
7817;SDS011;3954;52.624;9.212;2023-04-01T06:02:05;2.93;;;1.60;;
7817;SDS011;3954;52.624;9.212;2023-04-01T06:04:32;2.70;;;1.70;;
7817;SDS011;3954;52.624;9.212;2023-04-01T06:07:00;3.47;;;2.07;;
7817;SDS011;3954;52.624;9.212;2023-04-01T06:09:26;2.43;;;1.60;;
7817;SDS011;3954;52.624;9.212;2023-04-01T06:14:40;4.50;;;1.70;;
7817;SDS011;3954;52.624;9.212;2023-04-01T06:17:14;2.10;;;1.50;;
7817;SDS011;3954;52.624;9.212;2023-04-01T06:19:44;3.53;;;1.53;;
7817;SDS011;3954;52.624;9.212;2023-04-01T06:22:35;3.23;;;1.50;;
7817;SDS011;3954;52.624;9.212;2023-04-01T06:25:17;2.43;;;1.60;;
7817;SDS011;3954;52.624;9.212;2023-04-01T06:27:50;3.50;;;1.70;;
7817;SDS011;3954;52.624;9.212;2023-04-01T06:30:27;3.43;;;1.63;;
7817;SDS011;3954;52.624;9.212;2023-04-01T06:32:58;3.63;;;1.63;;
7817;SDS011;3954;52.624;9.212;2023-04-01T06:35:31;2.40;;;1.60;;
7817;SDS011;3954;52.624;9.212;2023-04-01T06:38:10;2.33;;;1.60;;
7817;SDS011;3954;52.624;9.212;2023-04-01T06:40:41;2.07;;;1.50;;
7817;SDS011;3954;52.624;9.212;2023-04-01T06:43:12;3.37;;;1.53;;
7817;SDS011;3954;52.624;9.212;2023-04-01T06:45:44;3.90;;;1.60;;
7817;SDS011;3954;52.624;9.212;2023-04-01T06:48:18;1.93;;;1.50;;
7817;SDS011;3954;52.624;9.212;2023-04-01T06:50:48;1.97;;;1.50;;
7817;SDS011;3954;52.624;9.212;2023-04-01T06:53:20;4.37;;;1.60;;
7817;SDS011;3954;52.624;9.212;2023-04-01T06:55:47;1.77;;;1.60;;
7817;SDS011;3954;52.624;9.212;2023-04-01T06:58:17;3.20;;;2.00;;
7817;SDS011;3954;52.624;9.212;2023-04-01T07:00:46;1.93;;;1.63;;
7817;SDS011;3954;52.624;9.212;2023-04-01T07:03:16;1.90;;;1.70;;
7817;SDS011;3954;52.624;9.212;2023-04-01T07:05:45;2.43;;;1.90;;
7817;SDS011;3954;52.624;9.212;2023-04-01T07:08:11;3.90;;;1.77;;
7817;SDS011;3954;52.624;9.212;2023-04-01T07:10:41;2.53;;;1.73;;
7817;SDS011;3954;52.624;9.212;2023-04-01T07:13:10;4.33;;;2.43;;
7817;SDS011;3954;52.624;9.212;2023-04-01T07:15:39;1.63;;;1.40;;
7817;SDS011;3954;52.624;9.212;2023-04-01T07:18:09;1.87;;;1.50;;
7817;SDS011;3954;52.624;9.212;2023-04-01T07:20:37;2.50;;;1.63;;
7817;SDS011;3954;52.624;9.212;2023-04-01T07:23:04;4.03;;;1.63;;
7817;SDS011;3954;52.624;9.212;2023-04-01T07:25:33;3.87;;;1.80;;
7817;SDS011;3954;52.624;9.212;2023-04-01T07:28:02;2.10;;;1.53;;
7817;SDS011;3954;52.624;9.212;2023-04-01T07:30:28;4.03;;;1.60;;
7817;SDS011;3954;52.624;9.212;2023-04-01T07:32:57;1.57;;;1.27;;
7817;SDS011;3954;52.624;9.212;2023-04-01T07:35:27;1.93;;;1.30;;
7817;SDS011;3954;52.624;9.212;2023-04-01T07:37:58;3.47;;;1.83;;
7817;SDS011;3954;52.624;9.212;2023-04-01T07:40:28;3.03;;;1.40;;
7817;SDS011;3954;52.624;9.212;2023-04-01T07:43:02;3.47;;;1.50;;
7817;SDS011;3954;52.624;9.212;2023-04-01T07:45:34;2.07;;;1.60;;
7817;SDS011;3954;52.624;9.212;2023-04-01T07:48:09;2.53;;;1.60;;
7817;SDS011;3954;52.624;9.212;2023-04-01T07:50:38;3.53;;;1.40;;
7817;SDS011;3954;52.624;9.212;2023-04-01T07:53:07;3.90;;;1.50;;
7817;SDS011;3954;52.624;9.212;2023-04-01T07:55:36;1.93;;;1.10;;
7817;SDS011;3954;52.624;9.212;2023-04-01T07:58:05;1.17;;;1.00;;
7817;SDS011;3954;52.624;9.212;2023-04-01T08:00:35;1.60;;;1.23;;
7817;SDS011;3954;52.624;9.212;2023-04-01T08:03:10;1.23;;;1.13;;
7817;SDS011;3954;52.624;9.212;2023-04-01T08:05:44;4.20;;;1.20;;
7817;SDS011;3954;52.624;9.212;2023-04-01T08:08:13;1.97;;;1.30;;
7817;SDS011;3954;52.624;9.212;2023-04-01T08:10:44;2.70;;;1.23;;
7817;SDS011;3954;52.624;9.212;2023-04-01T08:13:12;1.30;;;1.20;;
7817;SDS011;3954;52.624;9.212;2023-04-01T08:15:44;1.30;;;1.20;;
7817;SDS011;3954;52.624;9.212;2023-04-01T08:18:14;1.73;;;1.30;;
7817;SDS011;3954;52.624;9.212;2023-04-01T08:20:44;1.30;;;1.20;;
7817;SDS011;3954;52.624;9.212;2023-04-01T08:23:13;4.70;;;1.67;;
7817;SDS011;3954;52.624;9.212;2023-04-01T08:25:40;1.63;;;1.20;;
7817;SDS011;3954;52.624;9.212;2023-04-01T08:28:13;1.23;;;1.07;;
7817;SDS011;3954;52.624;9.212;2023-04-01T08:30:41;1.10;;;1.00;;
7817;SDS011;3954;52.624;9.212;2023-04-01T08:33:10;1.33;;;1.00;;
7817;SDS011;3954;52.624;9.212;2023-04-01T08:35:39;1.47;;;1.13;;
7817;SDS011;3954;52.624;9.212;2023-04-01T08:38:10;1.47;;;1.30;;
7817;SDS011;3954;52.624;9.212;2023-04-01T08:40:55;1.60;;;1.20;;
7817;SDS011;3954;52.624;9.212;2023-04-01T08:43:26;2.27;;;1.10;;
7817;SDS011;3954;52.624;9.212;2023-04-01T08:46:03;1.40;;;1.13;;
7817;SDS011;3954;52.624;9.212;2023-04-01T08:48:37;1.57;;;1.20;;
7817;SDS011;3954;52.624;9.212;2023-04-01T08:51:20;1.20;;;1.10;;
7817;SDS011;3954;52.624;9.212;2023-04-01T08:53:57;1.47;;;0.97;;
7817;SDS011;3954;52.624;9.212;2023-04-01T08:56:29;1.77;;;0.97;;
7817;SDS011;3954;52.624;9.212;2023-04-01T08:59:13;1.80;;;1.20;;
7817;SDS011;3954;52.624;9.212;2023-04-01T09:01:46;1.80;;;1.10;;
7817;SDS011;3954;52.624;9.212;2023-04-01T09:04:22;1.63;;;1.10;;
7817;SDS011;3954;52.624;9.212;2023-04-01T09:06:52;0.90;;;0.90;;
7817;SDS011;3954;52.624;9.212;2023-04-01T09:09:32;1.43;;;1.00;;
7817;SDS011;3954;52.624;9.212;2023-04-01T09:12:18;2.00;;;1.23;;
7817;SDS011;3954;52.624;9.212;2023-04-01T09:14:53;1.50;;;0.90;;
7817;SDS011;3954;52.624;9.212;2023-04-01T09:20:16;0.57;;;0.57;;
7817;SDS011;3954;52.624;9.212;2023-04-01T09:22:48;1.03;;;0.80;;
7817;SDS011;3954;52.624;9.212;2023-04-01T09:28:12;1.57;;;1.10;;
7817;SDS011;3954;52.624;9.212;2023-04-01T09:31:00;0.90;;;0.90;;
7817;SDS011;3954;52.624;9.212;2023-04-01T09:33:38;0.70;;;0.70;;
7817;SDS011;3954;52.624;9.212;2023-04-01T09:36:11;1.67;;;1.10;;
7817;SDS011;3954;52.624;9.212;2023-04-01T09:38:41;2.30;;;1.00;;
7817;SDS011;3954;52.624;9.212;2023-04-01T09:41:14;0.70;;;0.70;;
7817;SDS011;3954;52.624;9.212;2023-04-01T09:43:50;0.70;;;0.70;;
7817;SDS011;3954;52.624;9.212;2023-04-01T09:46:22;1.53;;;1.00;;
7817;SDS011;3954;52.624;9.212;2023-04-01T09:49:03;2.90;;;1.10;;
7817;SDS011;3954;52.624;9.212;2023-04-01T09:51:33;0.87;;;0.87;;
7817;SDS011;3954;52.624;9.212;2023-04-01T09:54:06;1.33;;;0.87;;
7817;SDS011;3954;52.624;9.212;2023-04-01T09:56:55;1.00;;;0.70;;
7817;SDS011;3954;52.624;9.212;2023-04-01T09:59:33;2.03;;;0.90;;
7817;SDS011;3954;52.624;9.212;2023-04-01T10:05:16;0.80;;;0.80;;
7817;SDS011;3954;52.624;9.212;2023-04-01T10:10:51;1.70;;;0.90;;
7817;SDS011;3954;52.624;9.212;2023-04-01T10:16:16;0.90;;;0.90;;
7817;SDS011;3954;52.624;9.212;2023-04-01T10:18:50;0.60;;;0.60;;
7817;SDS011;3954;52.624;9.212;2023-04-01T10:24:33;0.70;;;0.70;;
7817;SDS011;3954;52.624;9.212;2023-04-01T10:27:09;0.67;;;0.67;;
7817;SDS011;3954;52.624;9.212;2023-04-01T10:29:55;0.80;;;0.80;;
7817;SDS011;3954;52.624;9.212;2023-04-01T10:32:46;0.67;;;0.67;;
7817;SDS011;3954;52.624;9.212;2023-04-01T10:35:20;1.13;;;1.03;;
7817;SDS011;3954;52.624;9.212;2023-04-01T10:37:55;0.80;;;0.80;;
7817;SDS011;3954;52.624;9.212;2023-04-01T10:40:28;1.27;;;1.10;;
7817;SDS011;3954;52.624;9.212;2023-04-01T10:43:06;1.10;;;1.00;;
7817;SDS011;3954;52.624;9.212;2023-04-01T10:45:38;2.37;;;1.20;;
7817;SDS011;3954;52.624;9.212;2023-04-01T10:48:19;1.80;;;1.20;;
7817;SDS011;3954;52.624;9.212;2023-04-01T10:50:56;1.43;;;0.90;;
7817;SDS011;3954;52.624;9.212;2023-04-01T10:53:30;0.87;;;0.87;;
7817;SDS011;3954;52.624;9.212;2023-04-01T10:58:52;1.63;;;0.97;;
7817;SDS011;3954;52.624;9.212;2023-04-01T11:01:27;0.80;;;0.80;;
7817;SDS011;3954;52.624;9.212;2023-04-01T11:09:28;1.03;;;0.97;;
7817;SDS011;3954;52.624;9.212;2023-04-01T11:12:19;2.87;;;1.30;;
7817;SDS011;3954;52.624;9.212;2023-04-01T11:26:29;1.73;;;1.63;;
7817;SDS011;3954;52.624;9.212;2023-04-01T11:44:36;2.10;;;1.90;;
7817;SDS011;3954;52.624;9.212;2023-04-01T12:26:21;0.77;;;0.77;;
7817;SDS011;3954;52.624;9.212;2023-04-01T13:11:52;1.00;;;1.00;;
7817;SDS011;3954;52.624;9.212;2023-04-01T13:14:36;1.03;;;0.97;;
7817;SDS011;3954;52.624;9.212;2023-04-01T13:17:08;0.93;;;0.90;;
7817;SDS011;3954;52.624;9.212;2023-04-01T13:19:36;1.00;;;1.00;;
7817;SDS011;3954;52.624;9.212;2023-04-01T13:22:04;1.20;;;1.00;;
7817;SDS011;3954;52.624;9.212;2023-04-01T13:24:38;0.80;;;0.80;;
7817;SDS011;3954;52.624;9.212;2023-04-01T13:27:08;0.90;;;0.90;;
7817;SDS011;3954;52.624;9.212;2023-04-01T13:29:36;0.90;;;0.90;;
7817;SDS011;3954;52.624;9.212;2023-04-01T13:32:05;1.00;;;1.00;;
7817;SDS011;3954;52.624;9.212;2023-04-01T13:34:37;1.00;;;1.00;;
7817;SDS011;3954;52.624;9.212;2023-04-01T13:37:11;0.70;;;0.70;;
7817;SDS011;3954;52.624;9.212;2023-04-01T13:39:42;0.80;;;0.80;;
7817;SDS011;3954;52.624;9.212;2023-04-01T13:42:17;1.00;;;0.80;;
7817;SDS011;3954;52.624;9.212;2023-04-01T13:44:45;2.57;;;1.40;;
7817;SDS011;3954;52.624;9.212;2023-04-01T13:52:49;1.30;;;1.20;;
7817;SDS011;3954;52.624;9.212;2023-04-01T13:55:22;1.10;;;1.10;;
7817;SDS011;3954;52.624;9.212;2023-04-01T13:58:07;1.17;;;1.10;;
7817;SDS011;3954;52.624;9.212;2023-04-01T14:00:42;0.90;;;0.90;;
7817;SDS011;3954;52.624;9.212;2023-04-01T14:03:15;1.00;;;1.00;;
7817;SDS011;3954;52.624;9.212;2023-04-01T14:05:52;1.13;;;0.90;;
7817;SDS011;3954;52.624;9.212;2023-04-01T14:08:23;1.00;;;0.90;;
7817;SDS011;3954;52.624;9.212;2023-04-01T14:10:54;1.63;;;1.40;;
7817;SDS011;3954;52.624;9.212;2023-04-01T14:13:26;1.10;;;1.00;;
7817;SDS011;3954;52.624;9.212;2023-04-01T14:16:02;0.70;;;0.70;;
7817;SDS011;3954;52.624;9.212;2023-04-01T14:18:33;0.90;;;0.90;;
7817;SDS011;3954;52.624;9.212;2023-04-01T14:21:07;0.90;;;0.90;;
7817;SDS011;3954;52.624;9.212;2023-04-01T14:23:43;1.00;;;1.00;;
7817;SDS011;3954;52.624;9.212;2023-04-01T14:26:16;1.97;;;1.30;;
7817;SDS011;3954;52.624;9.212;2023-04-01T14:28:49;1.13;;;1.07;;
7817;SDS011;3954;52.624;9.212;2023-04-01T14:31:21;0.90;;;0.90;;
7817;SDS011;3954;52.624;9.212;2023-04-01T14:33:51;1.03;;;0.90;;
7817;SDS011;3954;52.624;9.212;2023-04-01T14:36:28;1.40;;;1.30;;
7817;SDS011;3954;52.624;9.212;2023-04-01T14:38:59;3.47;;;1.20;;
7817;SDS011;3954;52.624;9.212;2023-04-01T14:41:30;0.97;;;0.97;;
7817;SDS011;3954;52.624;9.212;2023-04-01T14:44:13;1.00;;;1.00;;
7817;SDS011;3954;52.624;9.212;2023-04-01T14:46:51;0.70;;;0.70;;
7817;SDS011;3954;52.624;9.212;2023-04-01T14:49:30;1.20;;;1.10;;
7817;SDS011;3954;52.624;9.212;2023-04-01T14:51:56;1.20;;;1.10;;
7817;SDS011;3954;52.624;9.212;2023-04-01T14:54:30;2.00;;;1.60;;
7817;SDS011;3954;52.624;9.212;2023-04-01T14:57:03;1.20;;;1.10;;
7817;SDS011;3954;52.624;9.212;2023-04-01T14:59:32;1.20;;;1.10;;
7817;SDS011;3954;52.624;9.212;2023-04-01T15:01:59;0.90;;;0.90;;
7817;SDS011;3954;52.624;9.212;2023-04-01T15:04:32;9.00;;;1.20;;
7817;SDS011;3954;52.624;9.212;2023-04-01T15:07:11;1.37;;;0.90;;
7817;SDS011;3954;52.624;9.212;2023-04-01T15:09:44;0.93;;;0.93;;
7817;SDS011;3954;52.624;9.212;2023-04-01T15:12:18;1.10;;;1.10;;
7817;SDS011;3954;52.624;9.212;2023-04-01T15:14:52;3.23;;;2.60;;
7817;SDS011;3954;52.624;9.212;2023-04-01T15:17:26;3.33;;;2.47;;
7817;SDS011;3954;52.624;9.212;2023-04-01T15:19:59;3.10;;;2.40;;
7817;SDS011;3954;52.624;9.212;2023-04-01T15:22:32;1.77;;;1.10;;
7817;SDS011;3954;52.624;9.212;2023-04-01T15:25:14;1.27;;;1.17;;
7817;SDS011;3954;52.624;9.212;2023-04-01T15:27:43;0.80;;;0.80;;
7817;SDS011;3954;52.624;9.212;2023-04-01T15:33:01;1.00;;;1.00;;
7817;SDS011;3954;52.624;9.212;2023-04-01T15:35:33;1.33;;;1.10;;
7817;SDS011;3954;52.624;9.212;2023-04-01T15:38:02;1.33;;;1.23;;
7817;SDS011;3954;52.624;9.212;2023-04-01T15:40:30;0.90;;;0.90;;
7817;SDS011;3954;52.624;9.212;2023-04-01T15:45:49;1.80;;;1.20;;
7817;SDS011;3954;52.624;9.212;2023-04-01T15:48:24;1.83;;;1.13;;
7817;SDS011;3954;52.624;9.212;2023-04-01T15:51:01;1.23;;;1.13;;
7817;SDS011;3954;52.624;9.212;2023-04-01T15:53:31;1.50;;;1.40;;
7817;SDS011;3954;52.624;9.212;2023-04-01T15:56:07;1.50;;;1.40;;
7817;SDS011;3954;52.624;9.212;2023-04-01T15:58:40;1.60;;;1.50;;
7817;SDS011;3954;52.624;9.212;2023-04-01T16:01:14;1.20;;;1.10;;
7817;SDS011;3954;52.624;9.212;2023-04-01T16:03:45;1.20;;;1.20;;
7817;SDS011;3954;52.624;9.212;2023-04-01T16:06:18;1.70;;;1.60;;
7817;SDS011;3954;52.624;9.212;2023-04-01T16:09:02;1.50;;;1.40;;
7817;SDS011;3954;52.624;9.212;2023-04-01T16:11:32;1.37;;;1.20;;
7817;SDS011;3954;52.624;9.212;2023-04-01T16:14:07;1.70;;;1.60;;
7817;SDS011;3954;52.624;9.212;2023-04-01T16:16:44;1.50;;;1.40;;
7817;SDS011;3954;52.624;9.212;2023-04-01T16:19:18;1.83;;;1.43;;
7817;SDS011;3954;52.624;9.212;2023-04-01T16:21:48;1.50;;;1.40;;
7817;SDS011;3954;52.624;9.212;2023-04-01T16:24:17;1.37;;;1.27;;
7817;SDS011;3954;52.624;9.212;2023-04-01T16:26:47;1.83;;;1.10;;
7817;SDS011;3954;52.624;9.212;2023-04-01T16:29:17;1.20;;;1.13;;
7817;SDS011;3954;52.624;9.212;2023-04-01T16:31:46;1.30;;;1.20;;
7817;SDS011;3954;52.624;9.212;2023-04-01T16:34:14;1.67;;;1.57;;
7817;SDS011;3954;52.624;9.212;2023-04-01T16:36:45;1.20;;;1.20;;
7817;SDS011;3954;52.624;9.212;2023-04-01T16:39:25;1.03;;;1.03;;
7817;SDS011;3954;52.624;9.212;2023-04-01T16:41:57;1.20;;;1.20;;
7817;SDS011;3954;52.624;9.212;2023-04-01T16:44:44;1.77;;;1.63;;
7817;SDS011;3954;52.624;9.212;2023-04-01T16:47:12;1.50;;;1.40;;
7817;SDS011;3954;52.624;9.212;2023-04-01T16:49:40;1.93;;;1.50;;
7817;SDS011;3954;52.624;9.212;2023-04-01T16:52:16;1.13;;;1.13;;
7817;SDS011;3954;52.624;9.212;2023-04-01T16:54:44;1.27;;;1.20;;
7817;SDS011;3954;52.624;9.212;2023-04-01T16:57:14;4.67;;;2.20;;
7817;SDS011;3954;52.624;9.212;2023-04-01T16:59:44;2.20;;;1.77;;
7817;SDS011;3954;52.624;9.212;2023-04-01T17:02:12;1.50;;;1.40;;
7817;SDS011;3954;52.624;9.212;2023-04-01T17:04:40;1.60;;;1.47;;
7817;SDS011;3954;52.624;9.212;2023-04-01T17:07:18;1.90;;;1.37;;
7817;SDS011;3954;52.624;9.212;2023-04-01T17:09:49;1.57;;;1.40;;
7817;SDS011;3954;52.624;9.212;2023-04-01T17:12:17;1.60;;;1.50;;
7817;SDS011;3954;52.624;9.212;2023-04-01T17:14:47;1.60;;;1.50;;
7817;SDS011;3954;52.624;9.212;2023-04-01T17:17:23;1.33;;;1.23;;
7817;SDS011;3954;52.624;9.212;2023-04-01T17:19:55;1.67;;;1.40;;
7817;SDS011;3954;52.624;9.212;2023-04-01T17:22:31;1.70;;;1.60;;
7817;SDS011;3954;52.624;9.212;2023-04-01T17:25:01;2.03;;;1.50;;
7817;SDS011;3954;52.624;9.212;2023-04-01T17:27:34;2.17;;;1.80;;
7817;SDS011;3954;52.624;9.212;2023-04-01T17:30:05;1.70;;;1.60;;
7817;SDS011;3954;52.624;9.212;2023-04-01T17:32:38;1.63;;;1.53;;
7817;SDS011;3954;52.624;9.212;2023-04-01T17:35:08;1.70;;;1.40;;
7817;SDS011;3954;52.624;9.212;2023-04-01T17:37:41;1.87;;;1.50;;
7817;SDS011;3954;52.624;9.212;2023-04-01T17:40:17;1.53;;;1.43;;
7817;SDS011;3954;52.624;9.212;2023-04-01T17:42:46;1.50;;;1.40;;
7817;SDS011;3954;52.624;9.212;2023-04-01T17:45:18;1.60;;;1.50;;
7817;SDS011;3954;52.624;9.212;2023-04-01T17:47:49;1.87;;;1.77;;
7817;SDS011;3954;52.624;9.212;2023-04-01T17:50:22;1.80;;;1.70;;
7817;SDS011;3954;52.624;9.212;2023-04-01T17:52:51;1.90;;;1.80;;
7817;SDS011;3954;52.624;9.212;2023-04-01T17:55:26;1.70;;;1.60;;
7817;SDS011;3954;52.624;9.212;2023-04-01T17:57:57;2.73;;;1.50;;
7817;SDS011;3954;52.624;9.212;2023-04-01T18:00:26;1.83;;;1.70;;
7817;SDS011;3954;52.624;9.212;2023-04-01T18:02:59;2.00;;;1.70;;
7817;SDS011;3954;52.624;9.212;2023-04-01T18:05:29;2.00;;;1.60;;
7817;SDS011;3954;52.624;9.212;2023-04-01T18:08:01;2.10;;;2.00;;
7817;SDS011;3954;52.624;9.212;2023-04-01T18:10:31;1.83;;;1.73;;